createdAt,value
2018-07-30T00:01:52.059Z,7.13
2018-07-30T00:04:20.479Z,7.07
2018-07-30T00:06:48.824Z,7.27
2018-07-30T00:09:17.224Z,7.30
2018-07-30T00:11:45.628Z,6.83
2018-07-30T00:14:14.086Z,7.63
2018-07-30T00:16:42.417Z,7.27
2018-07-30T00:19:10.824Z,6.67
2018-07-30T00:21:39.252Z,7.37
2018-07-30T00:24:07.676Z,7.60
2018-07-30T00:26:36.068Z,7.60
2018-07-30T00:29:04.475Z,7.50
2018-07-30T00:31:32.965Z,7.33
2018-07-30T00:34:01.244Z,7.97
2018-07-30T00:36:29.614Z,7.50
2018-07-30T00:38:57.981Z,7.30
2018-07-30T00:41:26.396Z,6.90
2018-07-30T00:43:54.464Z,7.40
2018-07-30T00:46:22.835Z,7.20
2018-07-30T00:48:51.196Z,7.97
2018-07-30T00:51:19.597Z,7.67
2018-07-30T00:53:47.937Z,7.10
2018-07-30T00:56:16.264Z,7.10
2018-07-30T00:58:44.672Z,7.13
2018-07-30T01:01:13.070Z,7.10
2018-07-30T01:03:41.448Z,7.90
2018-07-30T01:06:09.828Z,7.00
2018-07-30T01:08:38.213Z,7.97
2018-07-30T01:11:06.604Z,7.37
2018-07-30T01:13:34.997Z,7.27
2018-07-30T01:16:03.364Z,7.50
2018-07-30T01:18:31.694Z,7.67
2018-07-30T01:21:00.117Z,6.90
2018-07-30T01:23:28.512Z,7.30
2018-07-30T01:25:56.892Z,7.60
2018-07-30T01:28:25.269Z,7.77
2018-07-30T01:30:53.692Z,8.27
2018-07-30T01:33:22.047Z,7.30
2018-07-30T01:35:50.448Z,7.20
2018-07-30T01:38:18.794Z,7.17
2018-07-30T01:40:47.236Z,7.37
2018-07-30T01:43:15.583Z,8.00
2018-07-30T01:45:43.959Z,8.00
2018-07-30T01:48:12.300Z,7.40
2018-07-30T01:50:40.636Z,7.80
2018-07-30T01:53:09.010Z,7.40
2018-07-30T01:55:37.328Z,8.13
2018-07-30T01:58:05.714Z,7.50
2018-07-30T02:00:34.063Z,7.63
2018-07-30T02:03:02.429Z,8.57
2018-07-30T02:05:30.758Z,7.13
2018-07-30T02:07:59.103Z,7.40
2018-07-30T02:10:27.486Z,7.37
2018-07-30T02:12:55.825Z,7.43
2018-07-30T02:15:24.205Z,8.13
2018-07-30T02:17:52.564Z,8.30
2018-07-30T02:20:20.944Z,8.23
2018-07-30T02:22:49.015Z,8.00
2018-07-30T02:25:17.354Z,8.10
2018-07-30T02:27:45.742Z,8.10
2018-07-30T02:30:14.158Z,8.00
2018-07-30T02:32:42.554Z,8.50
2018-07-30T02:35:10.928Z,8.17
2018-07-30T02:37:39.347Z,7.93
2018-07-30T02:40:07.975Z,7.87
2018-07-30T02:42:36.376Z,8.30
2018-07-30T02:45:05.643Z,7.77
2018-07-30T02:47:34.016Z,9.07
2018-07-30T02:50:02.043Z,7.67
2018-07-30T02:52:30.846Z,7.63
2018-07-30T02:54:59.204Z,7.97
2018-07-30T02:57:27.788Z,8.50
2018-07-30T02:59:56.080Z,7.83
2018-07-30T03:02:24.481Z,8.80
2018-07-30T03:04:52.900Z,7.47
2018-07-30T03:07:21.265Z,8.30
2018-07-30T03:09:49.612Z,8.53
2018-07-30T03:12:17.963Z,8.60
2018-07-30T03:14:46.337Z,8.23
2018-07-30T03:17:14.711Z,8.40
2018-07-30T03:19:43.044Z,8.33
2018-07-30T03:22:11.525Z,8.60
2018-07-30T03:24:39.596Z,8.37
2018-07-30T03:27:08.002Z,8.80
2018-07-30T03:29:36.367Z,8.60
2018-07-30T03:32:04.752Z,8.73
2018-07-30T03:34:33.193Z,8.40
2018-07-30T03:37:01.558Z,8.20
2018-07-30T03:39:29.904Z,7.87
2018-07-30T03:41:58.276Z,8.30
2018-07-30T03:44:26.664Z,8.67
2018-07-30T03:46:55.045Z,8.57
2018-07-30T03:49:23.454Z,8.40
2018-07-30T03:51:51.801Z,8.73
2018-07-30T03:54:20.204Z,7.73
2018-07-30T03:56:48.583Z,7.90
2018-07-30T03:59:16.959Z,8.40
2018-07-30T04:01:45.301Z,8.03
2018-07-30T04:04:13.664Z,8.10
2018-07-30T04:06:41.993Z,8.00
2018-07-30T04:09:10.396Z,8.30
2018-07-30T04:11:38.830Z,7.80
2018-07-30T04:14:07.210Z,8.10
2018-07-30T04:16:41.060Z,8.50
2018-07-30T04:19:09.448Z,7.93
2018-07-30T04:21:37.791Z,8.40
2018-07-30T04:24:06.661Z,8.20
2018-07-30T04:26:35.101Z,8.67
2018-07-30T04:29:03.527Z,8.00
2018-07-30T04:31:31.913Z,7.63
2018-07-30T04:34:00.265Z,8.40
2018-07-30T04:36:28.604Z,7.90
2018-07-30T04:38:57.011Z,8.20
2018-07-30T04:41:25.106Z,8.37
2018-07-30T04:43:53.448Z,8.60
2018-07-30T04:46:21.866Z,9.10
2018-07-30T04:48:50.248Z,7.70
2018-07-30T04:51:18.735Z,8.60
2018-07-30T04:53:47.120Z,8.47
2018-07-30T04:56:15.476Z,8.23
2018-07-30T04:58:43.858Z,8.43
2018-07-30T05:01:12.228Z,8.60
2018-07-30T05:03:40.602Z,8.40
2018-07-30T05:06:09.009Z,8.43
2018-07-30T05:08:37.404Z,8.77
2018-07-30T05:11:05.753Z,8.10
2018-07-30T05:13:34.164Z,8.47
2018-07-30T05:16:02.537Z,8.30
2018-07-30T05:18:30.934Z,8.93
2018-07-30T05:20:59.294Z,8.67
2018-07-30T05:23:27.666Z,7.83
2018-07-30T05:25:56.018Z,9.70
2018-07-30T05:28:24.436Z,10.10
2018-07-30T05:30:52.921Z,10.60
2018-07-30T05:33:21.339Z,10.97
2018-07-30T05:35:49.719Z,11.97
2018-07-30T05:38:18.117Z,9.53
2018-07-30T05:40:46.515Z,9.60
2018-07-30T05:43:14.918Z,9.37
2018-07-30T05:45:43.347Z,8.90
2018-07-30T05:48:11.693Z,9.23
2018-07-30T05:50:40.081Z,8.50
2018-07-30T05:53:08.433Z,7.90
2018-07-30T05:55:36.853Z,7.90
2018-07-30T05:58:05.256Z,7.73
2018-07-30T06:00:33.793Z,8.13
2018-07-30T06:03:02.231Z,8.10
2018-07-30T06:05:30.679Z,7.83
2018-07-30T06:07:59.109Z,8.83
2018-07-30T06:10:27.493Z,8.77
2018-07-30T06:12:56.055Z,7.73
2018-07-30T06:15:24.432Z,8.67
2018-07-30T06:17:52.857Z,8.27
2018-07-30T06:20:21.226Z,7.50
2018-07-30T06:22:49.641Z,8.00
2018-07-30T06:25:18.068Z,8.87
2018-07-30T06:27:46.482Z,8.37
2018-07-30T06:30:14.909Z,8.43
2018-07-30T06:32:43.337Z,8.50
2018-07-30T06:35:11.699Z,8.50
2018-07-30T06:37:40.061Z,8.50
2018-07-30T06:40:08.440Z,8.00
2018-07-30T06:42:36.848Z,9.43
2018-07-30T06:45:05.765Z,8.10
2018-07-30T06:47:34.132Z,8.50
2018-07-30T06:50:02.573Z,9.70
2018-07-30T06:52:30.943Z,8.40
2018-07-30T06:54:59.300Z,8.97
2018-07-30T06:57:27.651Z,8.63
2018-07-30T06:59:56.073Z,7.83
2018-07-30T07:02:24.449Z,8.03
2018-07-30T07:04:52.816Z,8.47
2018-07-30T07:07:21.277Z,8.27
2018-07-30T07:09:49.689Z,7.73
2018-07-30T07:12:18.082Z,8.00
2018-07-30T07:14:46.511Z,8.23
2018-07-30T07:17:14.900Z,7.50
2018-07-30T07:19:43.288Z,7.90
2018-07-30T07:22:15.723Z,8.03
2018-07-30T07:24:44.836Z,8.90
2018-07-30T07:27:13.271Z,8.97
2018-07-30T07:29:41.613Z,8.30
2018-07-30T07:32:09.720Z,7.80
2018-07-30T07:34:38.259Z,8.60
2018-07-30T07:37:06.678Z,8.40
2018-07-30T07:39:35.095Z,8.40
2018-07-30T07:42:03.506Z,8.30
2018-07-30T07:44:31.612Z,8.10
2018-07-30T07:47:00.009Z,8.50
2018-07-30T07:49:28.397Z,8.77
2018-07-30T07:51:56.793Z,7.67
2018-07-30T07:54:25.247Z,7.90
2018-07-30T07:56:53.640Z,9.03
2018-07-30T07:59:22.038Z,8.07
2018-07-30T08:01:50.463Z,8.13
2018-07-30T08:04:18.914Z,7.90
2018-07-30T08:06:47.280Z,8.60
2018-07-30T08:09:15.384Z,8.27
2018-07-30T08:11:43.803Z,7.50
2018-07-30T08:14:12.267Z,7.43
2018-07-30T08:16:40.647Z,8.07
2018-07-30T08:19:09.075Z,7.80
2018-07-30T08:21:37.387Z,7.50
2018-07-30T08:24:05.877Z,7.60
2018-07-30T08:26:34.353Z,8.03
2018-07-30T08:29:02.761Z,7.70
2018-07-30T08:31:31.197Z,7.90
2018-07-30T08:33:59.572Z,8.00
2018-07-30T08:36:28.483Z,8.40
2018-07-30T08:38:56.905Z,7.70
2018-07-30T08:41:25.303Z,8.90
2018-07-30T08:43:53.674Z,7.60
2018-07-30T08:46:22.629Z,8.20
2018-07-30T08:48:51.030Z,7.83
2018-07-30T08:51:19.431Z,8.20
2018-07-30T08:53:47.855Z,7.63
2018-07-30T08:56:16.258Z,7.77
2018-07-30T08:58:44.691Z,7.50
2018-07-30T09:01:13.137Z,7.97
2018-07-30T09:03:41.620Z,8.43
2018-07-30T09:06:10.127Z,8.07
2018-07-30T09:08:38.551Z,7.50
2018-07-30T09:11:07.256Z,8.50
2018-07-30T09:13:35.706Z,8.17
2018-07-30T09:16:04.132Z,7.30
2018-07-30T09:18:32.518Z,7.20
2018-07-30T09:21:00.977Z,7.10
2018-07-30T09:23:29.425Z,7.93
2018-07-30T09:25:57.776Z,7.33
2018-07-30T09:28:26.194Z,7.10
2018-07-30T09:30:54.631Z,6.63
2018-07-30T09:33:23.114Z,7.30
2018-07-30T09:35:51.468Z,7.40
2018-07-30T09:38:19.938Z,7.30
2018-07-30T09:40:48.384Z,6.83
2018-07-30T09:43:16.869Z,6.73
2018-07-30T09:45:45.278Z,7.00
2018-07-30T09:48:13.685Z,6.80
2018-07-30T09:50:42.490Z,7.20
2018-07-30T09:53:10.928Z,6.43
2018-07-30T09:55:39.365Z,6.33
2018-07-30T09:58:07.925Z,6.03
2018-07-30T10:00:41.819Z,6.27
2018-07-30T10:03:10.193Z,6.00
2018-07-30T10:05:38.630Z,5.63
2018-07-30T10:08:07.039Z,5.93
2018-07-30T10:10:35.437Z,5.87
2018-07-30T10:13:03.903Z,6.00
2018-07-30T10:15:34.494Z,5.97
2018-07-30T10:18:02.994Z,5.93
2018-07-30T10:20:31.328Z,5.50
2018-07-30T10:22:59.995Z,5.37
2018-07-30T10:25:29.015Z,5.03
2018-07-30T10:27:57.652Z,5.30
2018-07-30T10:30:26.098Z,4.90
2018-07-30T10:32:54.512Z,4.50
2018-07-30T10:35:23.273Z,4.70
2018-07-30T10:37:51.891Z,5.17
2018-07-30T10:40:20.233Z,4.43
2018-07-30T10:42:48.732Z,3.97
2018-07-30T10:45:17.177Z,3.90
2018-07-30T10:47:45.598Z,4.03
2018-07-30T10:50:14.078Z,4.23
2018-07-30T10:52:42.593Z,4.00
2018-07-30T10:55:11.236Z,3.83
2018-07-30T10:57:39.608Z,3.60
2018-07-30T11:00:08.204Z,4.03
2018-07-30T11:02:36.805Z,3.77
2018-07-30T11:05:05.575Z,3.97
2018-07-30T11:07:33.981Z,4.10
2018-07-30T11:10:02.440Z,4.20
2018-07-30T11:12:30.890Z,4.30
2018-07-30T11:14:59.265Z,3.93
2018-07-30T11:17:27.700Z,3.67
2018-07-30T11:19:56.121Z,4.10
2018-07-30T11:22:24.484Z,3.97
2018-07-30T11:24:52.932Z,3.60
2018-07-30T11:27:21.474Z,3.83
2018-07-30T11:29:49.854Z,3.63
2018-07-30T11:32:18.340Z,3.60
2018-07-30T11:34:46.768Z,3.43
2018-07-30T11:37:15.245Z,3.43
2018-07-30T11:39:43.684Z,3.20
2018-07-30T11:42:12.072Z,3.47
2018-07-30T11:44:40.552Z,3.30
2018-07-30T11:47:08.913Z,2.97
2018-07-30T11:49:37.946Z,3.00
2018-07-30T11:52:07.348Z,3.50
2018-07-30T11:54:35.841Z,3.50
2018-07-30T11:57:04.215Z,2.97
2018-07-30T11:59:32.595Z,3.37
2018-07-30T12:02:01.302Z,3.50
2018-07-30T12:04:29.757Z,3.37
2018-07-30T12:06:58.387Z,3.10
2018-07-30T12:09:26.456Z,3.20
2018-07-30T12:11:55.545Z,3.10
2018-07-30T12:14:23.995Z,3.50
2018-07-30T12:16:52.612Z,3.20
2018-07-30T12:19:21.001Z,3.43
2018-07-30T12:21:49.611Z,3.00
2018-07-30T12:24:18.075Z,3.53
2018-07-30T12:26:46.532Z,3.27
2018-07-30T12:29:14.913Z,3.30
2018-07-30T12:31:43.344Z,3.37
2018-07-30T12:34:11.756Z,2.97
2018-07-30T12:36:40.133Z,3.10
2018-07-30T12:39:10.129Z,3.50
2018-07-30T12:41:38.544Z,3.73
2018-07-30T12:44:06.748Z,3.67
2018-07-30T12:46:35.200Z,3.30
2018-07-30T12:49:04.064Z,3.53
2018-07-30T12:51:32.420Z,3.10
2018-07-30T12:54:00.856Z,3.17
2018-07-30T12:56:29.272Z,2.90
2018-07-30T12:58:57.643Z,3.20
2018-07-30T13:01:26.021Z,3.00
2018-07-30T13:03:54.764Z,3.10
2018-07-30T13:06:23.129Z,3.30
2018-07-30T13:08:51.493Z,3.50
2018-07-30T13:11:19.963Z,2.80
2018-07-30T13:13:48.375Z,3.13
2018-07-30T13:16:16.802Z,3.10
2018-07-30T13:18:45.410Z,3.00
2018-07-30T13:21:13.813Z,3.17
2018-07-30T13:23:42.228Z,3.30
2018-07-30T13:26:10.295Z,3.10
2018-07-30T13:28:38.645Z,3.17
2018-07-30T13:31:07.060Z,2.97
2018-07-30T13:33:35.455Z,3.20
2018-07-30T13:36:03.901Z,3.23
2018-07-30T13:38:32.316Z,2.90
2018-07-30T13:41:00.810Z,2.90
2018-07-30T13:43:29.283Z,3.07
2018-07-30T13:45:57.765Z,3.00
2018-07-30T13:48:26.191Z,3.20
2018-07-30T13:50:54.562Z,2.70
2018-07-30T13:53:22.998Z,2.80
2018-07-30T13:55:51.398Z,2.67
2018-07-30T13:58:19.829Z,2.90
2018-07-30T14:00:47.903Z,2.93
2018-07-30T14:03:15.975Z,2.63
2018-07-30T14:05:44.405Z,2.97
2018-07-30T14:08:12.788Z,3.03
2018-07-30T14:10:41.196Z,3.30
2018-07-30T14:13:09.625Z,3.27
2018-07-30T14:15:38.040Z,3.30
2018-07-30T14:18:06.566Z,3.30
2018-07-30T14:20:35.028Z,3.53
2018-07-30T14:23:03.426Z,2.80
2018-07-30T14:25:31.822Z,3.40
2018-07-30T14:28:00.250Z,3.13
2018-07-30T14:30:28.679Z,3.50
2018-07-30T14:32:57.130Z,3.73
2018-07-30T14:35:25.657Z,3.33
2018-07-30T14:37:54.089Z,3.57
2018-07-30T14:40:22.893Z,3.63
2018-07-30T14:42:51.312Z,3.77
2018-07-30T14:45:19.729Z,3.37
2018-07-30T14:47:48.282Z,3.70
2018-07-30T14:50:16.699Z,3.63
2018-07-30T14:52:45.173Z,3.80
2018-07-30T14:55:13.627Z,3.70
2018-07-30T14:57:42.149Z,3.67
2018-07-30T15:00:10.615Z,4.13
2018-07-30T15:02:39.097Z,3.33
2018-07-30T15:05:07.576Z,3.60
2018-07-30T15:07:36.314Z,3.70
2018-07-30T15:10:05.087Z,3.90
2018-07-30T15:12:33.549Z,3.97
2018-07-30T15:15:02.113Z,3.90
2018-07-30T15:17:30.513Z,3.20
2018-07-30T15:19:58.900Z,3.23
2018-07-30T15:22:27.361Z,3.63
2018-07-30T15:24:55.498Z,3.50
2018-07-30T15:27:24.048Z,4.00
2018-07-30T15:29:52.454Z,3.90
2018-07-30T15:32:20.894Z,4.00
2018-07-30T15:34:49.329Z,3.60
2018-07-30T15:37:17.804Z,3.50
2018-07-30T15:39:46.307Z,3.73
2018-07-30T15:42:14.986Z,3.53
2018-07-30T15:44:43.776Z,3.80
2018-07-30T15:47:12.859Z,4.00
2018-07-30T15:49:41.256Z,4.10
2018-07-30T15:52:10.086Z,3.50
2018-07-30T15:54:38.870Z,4.03
2018-07-30T15:57:07.289Z,4.07
2018-07-30T15:59:35.727Z,4.00
2018-07-30T16:02:05.036Z,4.80
2018-07-30T16:04:33.484Z,4.47
2018-07-30T16:07:02.044Z,4.37
2018-07-30T16:09:30.806Z,4.40
2018-07-30T16:11:59.334Z,4.77
2018-07-30T16:14:27.737Z,4.10
2018-07-30T16:16:56.362Z,4.83
2018-07-30T16:19:24.769Z,4.53
2018-07-30T16:21:53.309Z,4.20
2018-07-30T16:24:21.712Z,4.40
2018-07-30T16:26:50.220Z,4.73
2018-07-30T16:29:18.871Z,5.00
2018-07-30T16:31:47.349Z,4.17
2018-07-30T16:34:15.732Z,4.23
2018-07-30T16:36:44.143Z,4.70
2018-07-30T16:39:12.576Z,4.33
2018-07-30T16:41:41.014Z,4.20
2018-07-30T16:44:09.484Z,4.10
2018-07-30T16:46:37.878Z,4.33
2018-07-30T16:49:06.377Z,4.40
2018-07-30T16:51:34.830Z,4.27
2018-07-30T16:54:03.409Z,4.20
2018-07-30T16:56:31.869Z,4.33
2018-07-30T16:59:00.368Z,3.83
2018-07-30T17:01:28.917Z,3.83
2018-07-30T17:03:57.407Z,4.10
2018-07-30T17:06:25.841Z,4.30
2018-07-30T17:08:54.280Z,4.67
2018-07-30T17:11:22.684Z,3.90
2018-07-30T17:13:51.184Z,4.43
2018-07-30T17:16:19.268Z,4.27
2018-07-30T17:18:47.704Z,4.40
2018-07-30T17:21:16.109Z,4.90
2018-07-30T17:23:44.544Z,4.80
2018-07-30T17:26:13.021Z,4.70
2018-07-30T17:28:41.595Z,4.27
2018-07-30T17:31:10.187Z,4.80
2018-07-30T17:33:38.917Z,4.30
2018-07-30T17:36:07.459Z,4.83
2018-07-30T17:38:35.876Z,4.80
2018-07-30T17:41:04.594Z,5.00
2018-07-30T17:43:33.316Z,4.33
2018-07-30T17:46:01.773Z,4.20
2018-07-30T17:48:30.206Z,4.90
2018-07-30T17:50:58.642Z,4.87
2018-07-30T17:53:27.370Z,4.77
2018-07-30T17:55:56.184Z,4.30
2018-07-30T17:58:24.664Z,4.10
2018-07-30T18:00:52.775Z,4.57
2018-07-30T18:03:21.324Z,4.50
2018-07-30T18:05:49.719Z,4.43
2018-07-30T18:08:18.164Z,4.70
2018-07-30T18:10:46.634Z,4.70
2018-07-30T18:13:15.036Z,4.40
2018-07-30T18:15:43.589Z,4.47
2018-07-30T18:18:12.181Z,5.83
2018-07-30T18:20:40.686Z,5.20
2018-07-30T18:23:09.168Z,4.67
2018-07-30T18:25:37.741Z,5.17
2018-07-30T18:28:06.436Z,4.97
2018-07-30T18:30:34.604Z,4.60
2018-07-30T18:33:03.106Z,4.77
2018-07-30T18:35:31.585Z,5.30
2018-07-30T18:38:00.169Z,5.10
2018-07-30T18:40:28.650Z,5.23
2018-07-30T18:42:57.195Z,5.10
2018-07-30T18:45:25.682Z,6.07
2018-07-30T18:47:54.194Z,5.30
2018-07-30T18:50:22.759Z,5.77
2018-07-30T18:52:51.248Z,5.40
2018-07-30T18:55:19.741Z,5.50
2018-07-30T18:57:48.270Z,5.67
2018-07-30T19:00:16.748Z,5.35
2018-07-30T19:02:45.194Z,5.80
2018-07-30T19:05:13.695Z,5.47
2018-07-30T19:07:42.203Z,6.47
2018-07-30T19:10:10.867Z,4.93
2018-07-30T19:12:39.325Z,6.00
2018-07-30T19:15:08.289Z,5.90
2018-07-30T19:17:36.997Z,5.87
2018-07-30T19:20:05.470Z,5.87
2018-07-30T19:22:34.274Z,5.63
2018-07-30T19:25:02.929Z,5.50
2018-07-30T19:27:31.792Z,5.90
2018-07-30T19:30:00.590Z,6.40
2018-07-30T19:32:29.282Z,6.00
2018-07-30T19:34:57.974Z,6.00
2018-07-30T19:37:26.777Z,6.27
2018-07-30T19:39:55.637Z,6.80
2018-07-30T19:42:24.138Z,6.80
2018-07-30T19:44:52.579Z,6.80
2018-07-30T19:47:21.101Z,6.57
2018-07-30T19:49:49.557Z,6.53
2018-07-30T19:52:18.347Z,6.40
2018-07-30T19:54:47.123Z,6.70
2018-07-30T19:57:15.902Z,7.00
2018-07-30T19:59:44.676Z,6.70
2018-07-30T20:02:13.450Z,7.23
2018-07-30T20:04:41.911Z,7.00
2018-07-30T20:07:10.346Z,7.07
2018-07-30T20:09:38.739Z,7.20
2018-07-30T20:12:07.465Z,6.80
2018-07-30T20:14:36.420Z,7.10
2018-07-30T20:17:05.082Z,7.70
2018-07-30T20:19:33.680Z,7.00
2018-07-30T20:22:02.308Z,7.27
2018-07-30T20:24:31.055Z,7.93
2018-07-30T20:26:59.853Z,7.30
2018-07-30T20:29:28.611Z,8.43
2018-07-30T20:31:57.043Z,10.27
2018-07-30T20:34:25.532Z,9.50
2018-07-30T20:36:53.920Z,8.30
2018-07-30T20:39:22.770Z,8.93
2018-07-30T20:41:51.185Z,8.60
2018-07-30T20:44:19.607Z,7.50
2018-07-30T20:46:48.026Z,8.77
2018-07-30T20:49:16.526Z,8.00
2018-07-30T20:51:44.961Z,7.60
2018-07-30T20:54:13.395Z,8.40
2018-07-30T20:56:41.823Z,7.83
2018-07-30T20:59:10.237Z,8.00
2018-07-30T21:01:38.735Z,8.17
2018-07-30T21:04:07.205Z,8.33
2018-07-30T21:06:35.689Z,8.17
2018-07-30T21:09:05.852Z,8.20
2018-07-30T21:11:34.357Z,7.83
2018-07-30T21:14:02.851Z,7.83
2018-07-30T21:16:31.248Z,8.00
2018-07-30T21:18:59.701Z,8.03
2018-07-30T21:21:28.084Z,9.17
2018-07-30T21:23:56.498Z,11.00
2018-07-30T21:26:24.841Z,13.10
2018-07-30T21:28:53.269Z,7.93
2018-07-30T21:31:21.684Z,8.73
2018-07-30T21:33:50.153Z,9.93
2018-07-30T21:36:18.590Z,8.97
2018-07-30T21:38:46.989Z,8.53
2018-07-30T21:41:15.419Z,8.83
2018-07-30T21:43:43.804Z,8.20
2018-07-30T21:46:12.187Z,9.40
2018-07-30T21:48:40.560Z,8.53
2018-07-30T21:51:08.996Z,8.70
2018-07-30T21:53:37.632Z,8.70
2018-07-30T21:56:06.382Z,8.67
2018-07-30T21:58:34.815Z,9.43
2018-07-30T22:01:03.271Z,8.77
2018-07-30T22:03:31.663Z,9.40
2018-07-30T22:06:01.112Z,9.57
2018-07-30T22:08:29.866Z,9.90
2018-07-30T22:10:58.316Z,9.20
2018-07-30T22:13:26.741Z,9.43
2018-07-30T22:15:55.161Z,9.43
2018-07-30T22:18:23.595Z,9.50
2018-07-30T22:20:51.648Z,9.43
2018-07-30T22:23:20.025Z,9.10
2018-07-30T22:25:48.441Z,9.10
2018-07-30T22:28:16.814Z,9.03
2018-07-30T22:30:45.225Z,10.70
2018-07-30T22:33:13.648Z,11.10
2018-07-30T22:35:42.045Z,10.03
2018-07-30T22:38:11.316Z,9.20
2018-07-30T22:40:39.804Z,9.40
2018-07-30T22:43:09.005Z,9.13
2018-07-30T22:45:37.454Z,9.53
2018-07-30T22:48:05.853Z,9.07
2018-07-30T22:50:34.355Z,9.40
2018-07-30T22:53:02.725Z,9.80
2018-07-30T22:55:31.146Z,9.40
2018-07-30T22:57:59.572Z,9.40
2018-07-30T23:00:27.965Z,9.47
2018-07-30T23:02:56.352Z,9.50
2018-07-30T23:05:24.758Z,9.40
2018-07-30T23:07:53.264Z,9.70
2018-07-30T23:10:21.722Z,9.87
2018-07-30T23:12:50.127Z,9.83
2018-07-30T23:15:18.482Z,9.63
2018-07-30T23:17:46.856Z,9.43
2018-07-30T23:20:15.228Z,9.60
2018-07-30T23:22:43.640Z,8.20
2018-07-30T23:25:12.031Z,9.50
2018-07-30T23:27:40.412Z,9.03
2018-07-30T23:30:08.879Z,9.83
2018-07-30T23:32:37.272Z,9.83
2018-07-30T23:35:05.749Z,9.93
2018-07-30T23:37:34.248Z,8.90
2018-07-30T23:40:02.617Z,13.23
2018-07-30T23:42:31.008Z,9.40
2018-07-30T23:44:59.434Z,10.30
2018-07-30T23:47:27.778Z,9.40
2018-07-30T23:49:56.188Z,9.53
2018-07-30T23:52:24.537Z,8.80
2018-07-30T23:54:53.130Z,9.87
2018-07-30T23:57:21.481Z,10.60
2018-07-30T23:59:49.876Z,10.40
